Aérodrome :
LOGIN :

S'inscrire | Disclaimer

   EN    FR    IT 

 










Légende :    VFR   VFR Marginal   IFR   IFR Intensif   IFR Très Intensif
Visi : 
Plafond : 
>= 8 km
>= 3000ft
5 à 8 km
1000 à 3000 ft
1500m à 5 km
500 à 1000 ft
800 à 1500m
200 à 500 ft
< 800m
< 200 ft
Symboles :   Orages  Brouillard  Fortes neiges  Fortes précipitations  Vent > 20 kt
SIGMETs :   Divers  Orages  Givrage  Turbulence  Onde Orograph.  Cendres Volcan.







- Altitude de l'aérodrome : 1649 ft
- Code IATA : HHN


EDFH - Frankfurt-Hahn Rhineland-Palatinate

DERNIER METAR :
  • 211820Z 30010KT 3000 -RA BR BKN003 BKN007 10/10 Q1016

METARs EXPIRÉS :
  • 211750Z 30009KT 4000 BR BKN003 10/10 Q1015
  • 211720Z 29007KT 260V320 5000 BR BKN003 10/10 Q1015
  • 211650Z 30008KT 7000 SCT001 BKN006 10/10 Q1015
  • 211620Z 31008KT 280V340 9000 3000SW FEW000 SCT002 BKN006 10/10 Q1015
  • 211550Z 29010KT 9999 3000SW FEW000 SCT002 BKN005 10/10 Q1015
  • 211520Z 30009KT 270V330 5000 2000SW -RA BR FEW000 SCT002 BKN004 10/10 Q1014

TAF AMD TAF EDFH
Valide du 21 à 18h jusqu'au 22 à 18h UTC


211815Z 2118/2218 30008KT 9000 SCT005 BKN010
TEMPO 2118/2124 4000 -RA BR BKN003
TEMPO 2200/2208 0400 FG BKN001
BECMG 2209/2212 BKN015
Pas de NOTAMs connus pour ce terrain.



MET'MAP, la Météo Aéronautique d'un coup d'oeil ! - Copyright ORBIFLY Décembre 2007 - Disclaimer

ORBIFLY MET'MAP TEAM :

Programmation & Développement : Alexandra Zaïnal
Conception & Développement : Baudouin d'Aumeries
Co-Programmation & Développement : Marc-Olivier Méhu
Soutien technique & logistique : Manuel Goepfert

Contact : metmap@orbifly.com




SOURCES & CREDITS :

   NOAA